Time;durP1;ratioP1;P1;durP2;ratioP2;P2;SDS_P1;SDS_P2;PMS_P1;PMS_P2;Temp;Humidity;BMP_temperature;BMP_pressure;BME280_temperature;BME280_humidity;BME280_pressure;Samples;Min_cycle;Max_cycle;Signal;HPM_P1;HPM_P2
2022/04/28 00:02:15;;;;;;;13.13;5.15;;;4.50;99.90;;;;;;5114337;28;20123;-82
2022/04/28 00:04:40;;;;;;;10.48;5.35;;;4.50;99.90;;;;;;5112738;28;20040;-82
2022/04/28 00:07:06;;;;;;;14.07;5.32;;;4.50;99.90;;;;;;5112704;28;20046;-81
2022/04/28 00:09:32;;;;;;;10.48;4.82;;;4.40;99.90;;;;;;5114438;28;20031;-82
2022/04/28 00:11:57;;;;;;;16.10;5.20;;;4.40;99.90;;;;;;5114017;28;20036;-82
2022/04/28 00:14:23;;;;;;;9.82;4.57;;;4.40;99.90;;;;;;5114235;28;20122;-83
2022/04/28 00:16:49;;;;;;;11.40;4.70;;;4.40;99.90;;;;;;5079315;28;20051;-81
2022/04/28 00:19:14;;;;;;;9.10;4.82;;;4.30;99.90;;;;;;5112968;28;20043;-80
2022/04/28 00:21:40;;;;;;;10.48;4.85;;;4.30;99.90;;;;;;5114211;28;20039;-82
2022/04/28 00:24:06;;;;;;;16.80;4.50;;;4.30;99.90;;;;;;5113102;28;20479;-81
2022/04/28 00:26:31;;;;;;;11.07;5.32;;;4.30;99.90;;;;;;5114203;28;20067;-82
2022/04/28 00:28:57;;;;;;;13.38;5.45;;;4.20;99.90;;;;;;5096223;28;20189;-82
2022/04/28 00:31:23;;;;;;;11.07;5.18;;;4.20;99.90;;;;;;5113933;28;20158;-82
2022/04/28 00:33:48;;;;;;;9.60;4.97;;;4.20;99.90;;;;;;5114389;28;20115;-82
2022/04/28 00:36:15;;;;;;;9.82;4.82;;;4.10;99.90;;;;;;5113091;28;20446;-82
2022/04/28 00:38:40;;;;;;;10.37;4.97;;;4.10;99.90;;;;;;5114192;28;20080;-82
2022/04/28 00:41:06;;;;;;;13.50;5.10;;;4.10;99.90;;;;;;5113996;28;20047;-81
2022/04/28 00:43:33;;;;;;;13.68;5.40;;;4.10;99.90;;;;;;5114348;28;20122;-81
2022/04/28 00:45:59;;;;;;;10.55;5.75;;;4.00;99.90;;;;;;5113896;28;20059;-81
2022/04/28 00:51:11;;;;;;;17.83;5.95;;;4.00;99.90;;;;;;5114196;28;20274;-82
2022/04/28 00:53:50;;;;;;;8.65;5.45;;;4.00;99.90;;;;;;5113999;28;20081;-81
2022/04/28 00:56:16;;;;;;;9.63;5.25;;;3.90;99.90;;;;;;5112752;28;20075;-82
2022/04/28 00:58:42;;;;;;;13.60;6.00;;;3.90;99.90;;;;;;5112842;28;20384;-81
2022/04/28 01:01:08;;;;;;;13.50;5.57;;;3.80;99.90;;;;;;5112885;28;20036;-81
2022/04/28 01:03:34;;;;;;;12.68;5.68;;;3.80;99.90;;;;;;5115884;28;20046;-82
2022/04/28 01:06:01;;;;;;;16.33;5.72;;;3.80;99.90;;;;;;5117753;28;20039;-82
2022/04/28 01:08:28;;;;;;;12.43;5.88;;;3.70;99.90;;;;;;5117390;28;20042;-80
2022/04/28 01:10:54;;;;;;;12.83;5.83;;;3.70;99.90;;;;;;5117537;27;20535;-81
2022/04/28 01:13:19;;;;;;;8.43;5.38;;;3.70;99.90;;;;;;5116201;28;20317;-81
2022/04/28 01:15:48;;;;;;;14.35;6.05;;;3.60;99.90;;;;;;5117816;28;20103;-81
2022/04/28 01:18:16;;;;;;;10.02;5.20;;;3.60;99.90;;;;;;5118002;28;20495;-80
2022/04/28 01:20:42;;;;;;;;;;;3.60;99.90;;;;;;5117417;28;20523;-82
2022/04/28 01:23:08;;;;;;;11.77;5.30;;;3.60;99.90;;;;;;5117195;28;20279;-82
2022/04/28 01:25:34;;;;;;;13.82;5.78;;;3.50;99.90;;;;;;5115659;28;20035;-83
2022/04/28 01:28:00;;;;;;;11.27;5.55;;;3.40;99.90;;;;;;5132955;27;20483;-82
2022/04/28 01:30:26;;;;;;;13.10;5.90;;;3.40;99.90;;;;;;5116640;28;20475;-82
2022/04/28 01:32:53;;;;;;;13.13;5.07;;;3.40;99.90;;;;;;5116877;28;20542;-81
2022/04/28 01:35:19;;;;;;;;;;;3.40;99.90;;;;;;5116120;28;20039;-81
2022/04/28 01:37:44;;;;;;;18.15;5.75;;;3.30;99.90;;;;;;5116935;28;19916;-80
2022/04/28 01:40:13;;;;;;;11.73;5.70;;;3.30;99.90;;;;;;5115461;28;20051;-82
2022/04/28 01:42:42;;;;;;;11.18;5.53;;;3.20;99.90;;;;;;5116828;28;20391;-82
2022/04/28 01:45:09;;;;;;;10.23;5.90;;;3.10;99.90;;;;;;5116773;28;20039;-81
2022/04/28 01:47:36;;;;;;;12.40;6.28;;;3.10;99.90;;;;;;5116993;28;20041;-80
2022/04/28 01:50:03;;;;;;;12.88;6.25;;;3.00;99.90;;;;;;5115461;28;20039;-82
2022/04/28 01:55:13;;;;;;;16.88;7.22;;;3.00;99.90;;;;;;5116551;28;20044;-82
2022/04/28 01:57:41;;;;;;;10.20;5.55;;;3.00;99.90;;;;;;5098142;28;20036;-82
2022/04/28 02:00:08;;;;;;;12.52;5.97;;;3.00;99.90;;;;;;5097565;28;20039;-82
2022/04/28 02:02:34;;;;;;;15.85;6.93;;;2.90;99.90;;;;;;5116003;28;20119;-81
2022/04/28 02:05:01;;;;;;;11.30;6.35;;;2.80;99.90;;;;;;5116350;28;20044;-82
2022/04/28 02:07:28;;;;;;;12.55;5.85;;;2.90;99.90;;;;;;5115098;28;20479;-81
2022/04/28 02:09:54;;;;;;;11.77;6.28;;;2.90;99.90;;;;;;5115095;28;20038;-80
2022/04/28 02:12:20;;;;;;;18.77;6.63;;;2.90;99.90;;;;;;5116059;28;20043;-82
2022/04/28 02:14:46;;;;;;;12.70;6.40;;;2.90;99.90;;;;;;5115179;28;20055;-82
2022/04/28 02:17:16;;;;;;;16.17;6.60;;;2.80;99.90;;;;;;5114608;28;20044;-82
2022/04/28 02:19:42;;;;;;;13.35;5.93;;;2.80;99.90;;;;;;5116111;28;20473;-82
2022/04/28 02:22:07;;;;;;;11.95;6.55;;;2.80;99.90;;;;;;5131777;27;20036;-82
2022/04/28 02:24:33;;;;;;;10.93;6.22;;;2.80;99.90;;;;;;5115791;28;20036;-82
2022/04/28 02:26:59;;;;;;;12.88;6.25;;;2.70;99.90;;;;;;5097551;28;20094;-82
2022/04/28 02:29:24;;;;;;;12.35;6.43;;;2.10;99.90;;;;;;5115596;28;20429;-82
2022/04/28 02:31:50;;;;;;;14.00;6.38;;;2.70;99.90;;;;;;5131537;27;20036;-82
2022/04/28 02:34:15;;;;;;;11.32;6.50;;;2.70;99.90;;;;;;5114523;28;20047;-82
2022/04/28 02:36:41;;;;;;;13.13;7.05;;;2.70;99.90;;;;;;5115292;28;20040;-82
2022/04/28 02:39:07;;;;;;;11.45;6.55;;;2.60;99.90;;;;;;5115630;28;20149;-81
2022/04/28 02:41:32;;;;;;;16.08;6.85;;;2.60;99.90;;;;;;5131096;27;20039;-81
2022/04/28 02:43:58;;;;;;;12.50;6.45;;;2.60;99.90;;;;;;5115406;28;20039;-82
2022/04/28 02:46:23;;;;;;;17.67;6.93;;;2.60;99.90;;;;;;5115488;28;20032;-82
2022/04/28 02:48:49;;;;;;;10.32;6.10;;;2.40;99.90;;;;;;5115468;28;20063;-81
2022/04/28 02:51:15;;;;;;;14.82;6.43;;;2.40;99.90;;;;;;5115276;28;20089;-79
2022/04/28 02:53:41;;;;;;;11.43;6.53;;;2.40;99.90;;;;;;5115181;28;20395;-81
2022/04/28 02:56:07;;;;;;;9.65;6.25;;;2.40;99.90;;;;;;5115286;28;20044;-80
2022/04/28 02:58:36;;;;;;;13.38;6.05;;;2.40;99.90;;;;;;5115122;28;20032;-81
2022/04/28 03:01:02;;;;;;;13.55;7.00;;;2.30;99.90;;;;;;5113561;28;20035;-80
2022/04/28 03:03:28;;;;;;;12.70;7.35;;;2.20;99.90;;;;;;5113844;28;20047;-80
2022/04/28 03:11:24;;;;;;;14.88;7.57;;;2.20;99.90;;;;;;5114973;28;20040;-81
2022/04/28 03:13:49;;;;;;;12.70;7.10;;;2.30;99.90;;;;;;5114812;28;20052;-81
2022/04/28 03:16:15;;;;;;;13.70;6.95;;;2.20;99.90;;;;;;5114914;28;20072;-81
2022/04/28 03:18:41;;;;;;;14.63;7.40;;;2.20;99.90;;;;;;5113788;28;20040;-81
2022/04/28 03:21:06;;;;;;;19.50;8.15;;;2.10;99.90;;;;;;5113497;28;20122;-81
2022/04/28 03:23:32;;;;;;;12.32;7.07;;;2.10;99.90;;;;;;5114718;28;20078;-81
2022/04/28 03:25:58;;;;;;;15.23;7.10;;;2.10;99.90;;;;;;5114724;28;20517;-81
2022/04/28 03:28:23;;;;;;;23.42;8.65;;;2.10;99.90;;;;;;5130603;27;20031;-81
2022/04/28 03:30:50;;;;;;;10.40;6.68;;;2.10;99.90;;;;;;5114487;28;20039;-81
2022/04/28 03:33:16;;;;;;;12.57;7.55;;;2.10;99.90;;;;;;5114838;28;20047;-81
2022/04/28 03:35:43;;;;;;;14.13;7.50;;;2.00;99.90;;;;;;5114346;28;20116;-81
2022/04/28 03:38:13;;;;;;;17.23;7.32;;;2.00;99.90;;;;;;5114663;28;20035;-81
2022/04/28 03:40:42;;;;;;;13.32;7.65;;;2.00;99.90;;;;;;5114595;28;20089;-82
2022/04/28 03:43:09;;;;;;;14.45;6.93;;;2.00;99.90;;;;;;5114418;28;20039;-81
2022/04/28 03:45:35;;;;;;;12.85;7.10;;;2.00;99.90;;;;;;5113206;28;20395;-81
2022/04/28 03:48:02;;;;;;;14.23;7.35;;;2.00;99.90;;;;;;5114719;28;20036;-82
2022/04/28 03:50:29;;;;;;;11.60;7.03;;;1.90;99.90;;;;;;5114834;28;20040;-82
2022/04/28 03:52:56;;;;;;;13.23;7.07;;;1.90;99.90;;;;;;5114963;28;20076;-82
2022/04/28 03:55:22;;;;;;;16.92;8.15;;;1.90;99.90;;;;;;5113540;28;20039;-82
2022/04/28 03:57:48;;;;;;;14.80;7.25;;;1.90;99.90;;;;;;5114638;28;20065;-82
2022/04/28 04:00:13;;;;;;;15.20;7.80;;;1.90;99.90;;;;;;5114523;28;20487;-82
2022/04/28 04:02:39;;;;;;;13.70;7.38;;;1.90;99.90;;;;;;5130483;28;20043;-81
2022/04/28 04:05:06;;;;;;;13.07;8.07;;;1.90;99.90;;;;;;5114352;28;20070;-82
2022/04/28 04:07:32;;;;;;;14.65;7.88;;;2.00;99.90;;;;;;5096088;28;20479;-81
2022/04/28 04:09:59;;;;;;;14.10;7.90;;;2.00;99.90;;;;;;5114444;28;20114;-82
2022/04/28 04:12:25;;;;;;;14.90;7.57;;;2.00;99.90;;;;;;5114406;28;20060;-82
2022/04/28 04:14:54;;;;;;;16.00;7.45;;;2.10;99.90;;;;;;5114473;28;20051;-82
2022/04/28 04:17:21;;;;;;;18.65;8.60;;;2.10;99.90;;;;;;5114391;28;20088;-82
2022/04/28 04:19:47;;;;;;;18.03;8.50;;;2.20;99.90;;;;;;5113956;28;20487;-82
2022/04/28 04:22:12;;;;;;;16.70;8.60;;;2.30;99.90;;;;;;5130104;27;20054;-82
2022/04/28 04:24:40;;;;;;;16.80;8.20;;;2.40;99.90;;;;;;5112931;28;20479;-81
2022/04/28 04:27:05;;;;;;;16.35;8.20;;;2.50;99.90;;;;;;5114124;28;20035;-81
2022/04/28 04:29:31;;;;;;;20.95;9.73;;;2.60;99.90;;;;;;5114141;28;20042;-82
2022/04/28 04:34:40;;;;;;;15.18;8.48;;;2.80;99.90;;;;;;5112624;28;20109;-82
2022/04/28 04:37:06;;;;;;;17.58;8.30;;;2.80;99.90;;;;;;5095710;28;20508;-82
2022/04/28 04:39:32;;;;;;;15.82;8.45;;;2.90;99.90;;;;;;5117600;28;20043;-81
2022/04/28 04:41:57;;;;;;;18.33;8.73;;;3.00;99.90;;;;;;5117568;28;20039;-80
2022/04/28 04:44:23;;;;;;;16.83;8.65;;;3.10;99.90;;;;;;5117649;28;20075;-81
2022/04/28 04:46:48;;;;;;;20.17;8.82;;;3.20;99.90;;;;;;5117941;28;20507;-82
2022/04/28 04:49:14;;;;;;;18.38;9.68;;;3.30;99.90;;;;;;5117546;28;20118;-81
2022/04/28 04:51:40;;;;;;;16.67;9.02;;;3.30;99.90;;;;;;5117614;28;20119;-82
2022/04/28 04:54:05;;;;;;;21.83;9.30;;;3.40;99.90;;;;;;5117350;28;20078;-82
2022/04/28 04:56:31;;;;;;;20.45;9.95;;;3.50;99.90;;;;;;5116231;28;20093;-81
2022/04/28 04:58:56;;;;;;;18.15;9.38;;;3.50;99.90;;;;;;5117376;28;20064;-82
2022/04/28 05:01:22;;;;;;;17.65;9.10;;;3.60;99.90;;;;;;5116303;28;20040;-82
2022/04/28 05:03:47;;;;;;;16.77;8.88;;;3.70;99.90;;;;;;5098941;28;20039;-84
2022/04/28 05:06:13;;;;;;;18.92;9.68;;;3.80;99.90;;;;;;5117492;28;20032;-81
2022/04/28 05:08:39;;;;;;;14.25;8.30;;;3.90;99.90;;;;;;5115729;28;20131;-83
2022/04/28 05:11:04;;;;;;;16.70;8.50;;;4.00;99.90;;;;;;5115845;28;20036;-78
2022/04/28 05:13:30;;;;;;;20.75;9.30;;;4.10;99.90;;;;;;5116716;28;20051;-81
2022/04/28 05:15:55;;;;;;;16.23;8.35;;;4.20;99.90;;;;;;5098576;28;20036;-80
2022/04/28 05:18:21;;;;;;;17.02;9.30;;;4.20;99.90;;;;;;5117066;28;20092;-80
2022/04/28 05:20:48;;;;;;;24.05;9.05;;;4.40;99.90;;;;;;5117082;28;20124;-78
2022/04/28 05:23:13;;;;;;;15.52;8.32;;;4.40;99.90;;;;;;5117112;28;20126;-80
2022/04/28 05:25:40;;;;;;;17.45;8.45;;;4.50;99.90;;;;;;5116749;28;20170;-79
2022/04/28 05:28:05;;;;;;;15.17;8.23;;;4.60;99.90;;;;;;5116999;28;20044;-81
2022/04/28 05:30:31;;;;;;;13.27;8.43;;;4.70;99.90;;;;;;5116942;28;20051;-80
2022/04/28 05:32:57;;;;;;;16.38;7.95;;;4.30;99.90;;;;;;5116797;28;20035;-76
2022/04/28 05:35:22;;;;;;;18.00;9.13;;;4.90;99.90;;;;;;5116776;28;20035;-76
2022/04/28 05:37:48;;;;;;;17.17;9.05;;;5.00;99.90;;;;;;5116876;28;20032;-77
2022/04/28 05:40:15;;;;;;;18.52;9.70;;;5.10;99.90;;;;;;5116841;28;20059;-78
2022/04/28 05:45:46;;;;;;;14.30;8.82;;;5.30;99.90;;;;;;5116317;28;20043;-78
2022/04/28 05:48:16;;;;;;;13.38;7.60;;;5.40;99.90;;;;;;5116573;28;20391;-80
2022/04/28 05:50:42;;;;;;;11.70;7.53;;;5.50;99.90;;;;;;5115112;28;20057;-80
2022/04/28 05:53:09;;;;;;;14.90;8.23;;;5.60;99.90;;;;;;5116415;28;20084;-79
2022/04/28 05:55:35;;;;;;;17.45;8.52;;;5.70;99.90;;;;;;5116473;28;20040;-77
2022/04/28 05:58:01;;;;;;;13.60;8.27;;;5.80;99.90;;;;;;5116259;28;20536;-77
2022/04/28 06:00:27;;;;;;;17.20;9.25;;;5.90;99.90;;;;;;5116288;28;20044;-76
2022/04/28 06:02:53;;;;;;;14.85;8.27;;;5.90;99.90;;;;;;5116200;28;20036;-77
2022/04/28 06:05:19;;;;;;;13.35;7.60;;;6.00;99.90;;;;;;5116207;28;20043;-77
2022/04/28 06:07:45;;;;;;;18.73;7.35;;;6.10;99.90;;;;;;5116076;28;20032;-78
2022/04/28 06:10:12;;;;;;;12.23;6.60;;;6.10;99.90;;;;;;5116225;28;20376;-78
2022/04/28 06:12:38;;;;;;;11.13;6.72;;;6.20;99.90;;;;;;5116073;28;20101;-77
2022/04/28 06:15:04;;;;;;;13.47;6.43;;;6.30;99.90;;;;;;5116010;28;20048;-78
2022/04/28 06:17:30;;;;;;;14.82;7.22;;;6.40;99.90;;;;;;5115645;28;20051;-77
2022/04/28 06:19:55;;;;;;;12.93;7.30;;;6.40;99.90;;;;;;5115819;28;20040;-79
2022/04/28 06:22:21;;;;;;;15.40;6.25;;;6.50;99.90;;;;;;5115630;28;20101;-75
2022/04/28 06:24:53;;;;;;;13.38;7.28;;;6.50;99.90;;;;;;5115808;28;20089;-78
2022/04/28 06:27:19;;;;;;;10.45;6.85;;;6.60;99.90;;;;;;5115728;28;20031;-77
2022/04/28 06:29:45;;;;;;;12.05;6.28;;;6.70;99.90;;;;;;5115900;28;20031;-78
2022/04/28 06:32:11;;;;;;;12.85;6.13;;;6.70;99.90;;;;;;5115859;28;20067;-77
2022/04/28 06:34:37;;;;;;;11.43;6.95;;;6.80;99.90;;;;;;5115724;28;20464;-76
2022/04/28 06:37:04;;;;;;;15.35;6.97;;;6.80;99.90;;;;;;5115311;28;20039;-79
2022/04/28 06:39:29;;;;;;;18.73;7.68;;;6.90;99.90;;;;;;5115344;28;20086;-76
2022/04/28 06:41:55;;;;;;;13.95;6.38;;;6.90;99.90;;;;;;5114033;28;20387;-77
2022/04/28 06:44:21;;;;;;;13.50;6.88;;;7.00;99.90;;;;;;5114103;28;20040;-78
2022/04/28 06:46:46;;;;;;;15.40;6.20;;;7.10;99.90;;;;;;5115286;28;20474;-77
2022/04/28 06:49:12;;;;;;;12.93;6.57;;;7.10;99.90;;;;;;5115458;28;20475;-78
2022/04/28 06:51:37;;;;;;;9.02;5.70;;;7.20;99.90;;;;;;5114901;28;20547;-78
2022/04/28 06:54:03;;;;;;;11.85;6.05;;;7.30;99.90;;;;;;5115241;28;20057;-79
2022/04/28 06:56:29;;;;;;;22.15;5.55;;;7.40;99.90;;;;;;5115296;28;20394;-77
2022/04/28 06:58:55;;;;;;;13.80;6.13;;;7.50;99.90;;;;;;5115200;27;20043;-78
2022/04/28 07:01:20;;;;;;;9.60;4.90;;;7.60;99.90;;;;;;5114747;28;20386;-76
2022/04/28 07:03:46;;;;;;;14.95;6.03;;;7.60;99.90;;;;;;5114910;28;20050;-77
2022/04/28 07:06:11;;;;;;;8.68;5.53;;;7.80;99.90;;;;;;5114978;28;20043;-76
2022/04/28 07:08:37;;;;;;;18.08;5.65;;;7.90;99.90;;;;;;5114744;28;20403;-77
2022/04/28 07:11:02;;;;;;;12.20;5.10;;;8.00;99.90;;;;;;5114496;28;20035;-77
2022/04/28 07:13:28;;;;;;;10.82;4.88;;;8.20;99.90;;;;;;5114751;28;20062;-76
2022/04/28 07:15:54;;;;;;;10.60;4.53;;;8.30;99.90;;;;;;5114543;28;20044;-78
2022/04/28 07:18:19;;;;;;;10.10;4.38;;;8.40;99.90;;;;;;5114608;28;20046;-77
2022/04/28 07:20:45;;;;;;;13.48;4.72;;;8.50;99.90;;;;;;5114195;28;20043;-74
2022/04/28 07:23:10;;;;;;;7.07;4.50;;;8.60;99.90;;;;;;5114222;28;20039;-75
2022/04/28 07:25:36;;;;;;;8.98;4.10;;;8.70;99.90;;;;;;5114176;28;20088;-76
2022/04/28 07:28:02;;;;;;;9.77;4.40;;;8.80;99.90;;;;;;5114450;28;20050;-76
2022/04/28 07:30:28;;;;;;;6.80;4.10;;;9.00;99.90;;;;;;5114480;28;20073;-76
2022/04/28 07:32:53;;;;;;;10.68;4.38;;;9.10;99.90;;;;;;5114720;28;20039;-76
2022/04/28 07:35:21;;;;;;;11.95;4.40;;;9.20;99.90;;;;;;5114397;28;20039;-77
2022/04/28 07:37:47;;;;;;;10.10;3.88;;;9.40;99.90;;;;;;5114387;28;20035;-78
2022/04/28 07:40:12;;;;;;;10.57;4.30;;;9.50;99.90;;;;;;5114081;28;20043;-78
2022/04/28 07:42:38;;;;;;;10.23;3.65;;;9.60;99.90;;;;;;5114284;28;20047;-76
2022/04/28 07:45:04;;;;;;;10.13;3.65;;;9.70;99.90;;;;;;5113259;28;20402;-76
2022/04/28 07:47:31;;;;;;;11.07;3.55;;;9.70;99.90;;;;;;5114274;28;20040;-73
2022/04/28 07:49:56;;;;;;;14.98;4.60;;;9.90;99.90;;;;;;5114089;28;20043;-76
2022/04/28 07:52:22;;;;;;;10.43;4.07;;;10.00;99.90;;;;;;5114228;28;20475;-77
2022/04/28 07:54:48;;;;;;;11.13;3.65;;;10.20;99.90;;;;;;5114179;28;20046;-76
2022/04/28 07:57:15;;;;;;;7.50;3.43;;;10.30;99.90;;;;;;5114326;28;20044;-81
2022/04/28 07:59:41;;;;;;;11.80;4.30;;;10.30;99.90;;;;;;5113396;28;20742;-79
2022/04/28 08:02:11;;;;;;;7.03;3.40;;;10.30;99.90;;;;;;5114185;28;20055;-78
2022/04/28 08:04:37;;;;;;;8.35;4.03;;;10.20;99.90;;;;;;5114367;28;20048;-76
2022/04/28 08:07:03;;;;;;;10.70;3.45;;;10.30;99.90;;;;;;5113783;28;20051;-76
2022/04/28 08:09:29;;;;;;;11.52;3.72;;;10.40;99.90;;;;;;5113787;28;20050;-77
2022/04/28 08:11:54;;;;;;;11.38;3.45;;;10.40;99.90;;;;;;5113898;28;20047;-77
2022/04/28 08:14:23;;;;;;;9.00;3.45;;;10.40;99.90;;;;;;5117662;28;20471;-78
2022/04/28 08:16:49;;;;;;;8.13;4.10;;;10.50;99.90;;;;;;5118168;28;20100;-77
2022/04/28 08:19:15;;;;;;;10.68;3.75;;;10.50;99.90;;;;;;5118175;28;20047;-77
2022/04/28 08:21:40;;;;;;;13.65;4.25;;;10.50;99.90;;;;;;5118114;28;20050;-74
2022/04/28 08:24:06;;;;;;;9.13;3.72;;;10.50;99.90;;;;;;5118779;28;20075;-77
2022/04/28 08:26:32;;;;;;;12.40;5.15;;;10.50;99.90;;;;;;5118023;28;20077;-74
2022/04/28 08:28:57;;;;;;;9.35;4.22;;;10.50;99.90;;;;;;5117601;28;20040;-74
2022/04/28 08:31:23;;;;;;;13.05;4.85;;;10.40;99.90;;;;;;5117891;28;20051;-74
2022/04/28 08:33:49;;;;;;;13.10;3.90;;;10.40;99.90;;;;;;5116585;28;20044;-75
2022/04/28 08:36:15;;;;;;;9.80;4.05;;;10.50;99.90;;;;;;5117859;28;20040;-76
2022/04/28 08:38:41;;;;;;;;;;;10.50;99.90;;;;;;5118266;28;20484;-74
2022/04/28 08:41:09;;;;;;;8.52;3.38;;;10.50;99.90;;;;;;5117688;28;20010;-78
2022/04/28 08:43:37;;;;;;;9.93;4.28;;;10.60;99.90;;;;;;5117589;28;20043;-75
2022/04/28 08:48:54;;;;;;;9.35;3.30;;;10.70;99.90;;;;;;5117548;28;20048;-79
2022/04/28 08:51:20;;;;;;;;;;;10.70;99.90;;;;;;5117973;28;20048;-80
2022/04/28 08:53:48;;;;;;;7.45;3.58;;;10.80;99.90;;;;;;5117582;27;20018;-73
2022/04/28 08:56:15;;;;;;;7.63;4.15;;;10.90;99.90;;;;;;5117687;28;20048;-74
2022/04/28 08:58:40;;;;;;;9.05;3.85;;;10.80;99.90;;;;;;5117376;28;20051;-72
2022/04/28 09:01:06;;;;;;;11.35;4.63;;;10.90;99.90;;;;;;5117431;28;20574;-76
2022/04/28 09:03:32;;;;;;;9.77;3.53;;;11.00;99.90;;;;;;5117199;28;20459;-75
2022/04/28 09:05:58;;;;;;;10.98;4.28;;;11.00;99.90;;;;;;5117520;28;20075;-74
2022/04/28 09:08:24;;;;;;;9.27;3.28;;;11.00;99.90;;;;;;5117269;28;20040;-73
2022/04/28 09:10:49;;;;;;;10.98;3.63;;;11.10;99.90;;;;;;5117111;28;20104;-73
2022/04/28 09:15:59;;;;;;;7.40;3.42;;;11.30;99.90;;;;;;5116927;28;20044;-79
2022/04/28 09:18:25;;;;;;;9.80;3.50;;;11.40;99.90;;;;;;5117172;28;20054;-79
2022/04/28 09:20:51;;;;;;;8.27;2.72;;;11.40;99.90;;;;;;5116221;28;20135;-80
2022/04/28 09:23:18;;;;;;;9.25;2.80;;;11.60;99.90;;;;;;5116909;28;20051;-77
2022/04/28 09:25:44;;;;;;;6.65;2.80;;;11.60;99.90;;;;;;5115985;28;20036;-79
2022/04/28 09:28:11;;;;;;;5.88;2.20;;;11.70;99.90;;;;;;5116955;28;20126;-79
2022/04/28 09:30:46;;;;;;;8.57;2.70;;;11.70;99.90;;;;;;5116860;28;20093;-77
2022/04/28 09:33:13;;;;;;;6.07;2.40;;;11.90;99.90;;;;;;5116777;28;20383;-80
2022/04/28 09:35:50;;;;;;;8.20;2.60;;;11.90;99.90;;;;;;5116817;28;20040;-79
2022/04/28 09:38:17;;;;;;;6.53;2.40;;;12.00;99.90;;;;;;5132753;27;20405;-81
2022/04/28 09:43:32;;;;;;;10.77;2.30;;;12.20;99.90;;;;;;5116805;28;20392;-78
2022/04/28 09:46:00;;;;;;;5.95;2.20;;;12.30;99.90;;;;;;5116667;28;20036;-79
2022/04/28 09:48:29;;;;;;;6.63;2.10;;;12.30;99.90;;;;;;5116597;28;20051;-77
2022/04/28 09:51:07;;;;;;;7.53;2.42;;;12.30;99.90;;;;;;5116520;28;20118;-79
2022/04/28 09:53:35;;;;;;;10.30;2.67;;;12.40;99.90;;;;;;5116383;28;20069;-76
2022/04/28 09:56:02;;;;;;;11.63;2.53;;;12.40;99.90;;;;;;5132787;27;20044;-78
2022/04/28 09:58:29;;;;;;;8.00;2.38;;;12.50;99.90;;;;;;5115225;28;20051;-78
2022/04/28 10:01:00;;;;;;;10.63;2.72;;;12.50;99.90;;;;;;5116433;28;20099;-78
2022/04/28 10:03:30;;;;;;;8.52;2.72;;;12.40;99.90;;;;;;5116322;28;20052;-77
2022/04/28 10:05:57;;;;;;;8.52;2.45;;;12.40;99.90;;;;;;5116153;28;20116;-78
2022/04/28 10:08:24;;;;;;;6.35;2.53;;;12.50;99.90;;;;;;5116105;28;20487;-79
2022/04/28 10:10:52;;;;;;;;;;;12.60;99.90;;;;;;5116499;28;20048;-79
2022/04/28 10:13:19;;;;;;;6.65;2.75;;;12.70;99.90;;;;;;5115839;28;19920;-78
2022/04/28 10:15:45;;;;;;;;;;;12.80;99.90;;;;;;5116448;28;20083;-79
2022/04/28 10:18:13;;;;;;;8.82;2.58;;;13.00;99.90;;;;;;5115889;28;19927;-80
2022/04/28 10:20:45;;;;;;;10.57;2.65;;;13.30;99.90;;;;;;5115801;28;20434;-78
2022/04/28 10:23:15;;;;;;;7.88;2.53;;;13.60;99.90;;;;;;5116634;28;20527;-78
2022/04/28 10:34:12;;;;;;;7.35;2.53;;;14.00;99.90;;;;;;5115106;28;20060;-78
2022/04/28 10:36:56;;;;;;;7.30;2.60;;;14.50;99.90;;;;;;5114849;28;20071;-77
2022/04/28 10:39:40;;;;;;;9.15;2.35;;;14.50;99.90;;;;;;5115393;28;20065;-77
2022/04/28 10:42:42;;;;;;;9.82;2.58;;;14.50;99.90;;;;;;5115408;28;20529;-81
2022/04/28 10:45:30;;;;;;;6.35;2.42;;;14.40;99.90;;;;;;5114855;28;20495;-80
2022/04/28 10:48:33;;;;;;;8.00;2.72;;;14.30;99.90;;;;;;5115422;28;20104;-80
2022/04/28 10:51:29;;;;;;;11.25;2.75;;;14.20;99.90;;;;;;5052381;28;20052;-79
2022/04/28 10:54:01;;;;;;;11.60;2.90;;;14.20;99.90;;;;;;5115412;28;20039;-80
2022/04/28 10:56:29;;;;;;;8.27;2.75;;;14.20;99.90;;;;;;5115152;28;20054;-78
2022/04/28 10:58:59;;;;;;;11.35;3.10;;;14.40;99.90;;;;;;5114184;28;20071;-79
2022/04/28 11:01:33;;;;;;;10.70;3.08;;;14.20;99.90;;;;;;5115052;28;20051;-74
2022/04/28 11:04:03;;;;;;;9.57;3.00;;;14.40;99.90;;;;;;5114876;28;20047;-75
2022/04/28 11:06:31;;;;;;;5.22;2.40;;;14.40;99.90;;;;;;5114779;28;20521;-79
2022/04/28 11:09:00;;;;;;;8.45;2.85;;;14.40;99.90;;;;;;5114849;28;20083;-79
2022/04/28 11:11:29;;;;;;;5.03;2.63;;;14.30;99.90;;;;;;5114817;28;20043;-80
2022/04/28 11:13:57;;;;;;;8.00;2.85;;;14.50;99.90;;;;;;5113337;28;20443;-75
2022/04/28 11:16:24;;;;;;;8.40;2.45;;;14.60;99.90;;;;;;5113765;28;20048;-77
2022/04/28 11:18:50;;;;;;;6.80;2.80;;;14.60;99.90;;;;;;5114451;28;20055;-77
2022/04/28 11:21:19;;;;;;;7.28;2.88;;;14.50;99.90;;;;;;5113571;28;20050;-76
2022/04/28 11:23:48;;;;;;;7.43;2.70;;;14.50;99.90;;;;;;5115540;28;20047;-75
2022/04/28 11:26:14;;;;;;;10.27;2.55;;;14.80;99.90;;;;;;5115805;28;20047;-77
2022/04/28 11:28:41;;;;;;;6.55;2.85;;;15.10;99.90;;;;;;5115577;28;20036;-76
2022/04/28 11:31:18;;;;;;;12.98;2.85;;;15.20;99.90;;;;;;5097366;28;20093;-76
2022/04/28 11:33:45;;;;;;;9.75;2.90;;;15.00;99.90;;;;;;5115689;28;20043;-77
2022/04/28 11:36:25;;;;;;;8.52;2.70;;;15.30;99.90;;;;;;5114945;28;20122;-77
2022/04/28 11:38:54;;;;;;;8.38;2.90;;;15.40;99.90;;;;;;5115051;28;20456;-75
2022/04/28 11:41:26;;;;;;;10.48;3.10;;;15.30;99.90;;;;;;5115649;28;20075;-75
2022/04/28 11:43:52;;;;;;;9.23;2.75;;;15.10;99.90;;;;;;5115128;28;20126;-77
2022/04/28 11:46:18;;;;;;;6.25;2.60;;;15.10;99.90;;;;;;5097290;28;20055;-76
2022/04/28 11:48:44;;;;;;;10.03;3.07;;;15.20;99.90;;;;;;5116500;28;20036;-75
2022/04/28 11:51:09;;;;;;;9.67;2.80;;;15.30;99.90;;;;;;5116625;28;20112;-76
2022/04/28 11:53:43;;;;;;;10.10;2.90;;;15.00;99.90;;;;;;5116613;28;20040;-76
2022/04/28 11:56:18;;;;;;;5.70;3.28;;;14.80;99.90;;;;;;5114665;28;20146;-76
2022/04/28 11:58:48;;;;;;;8.98;3.28;;;14.70;99.90;;;;;;5113735;28;20588;-75
2022/04/28 12:01:13;;;;;;;8.95;3.08;;;14.90;99.90;;;;;;5115056;28;20075;-76
2022/04/28 12:03:47;;;;;;;11.20;3.30;;;14.70;99.90;;;;;;5114651;28;20108;-76
2022/04/28 12:06:16;;;;;;;8.88;3.40;;;14.80;99.90;;;;;;5114181;28;20042;-76
2022/04/28 12:08:46;;;;;;;10.38;3.22;;;14.60;99.90;;;;;;5114348;28;20051;-75
2022/04/28 12:19:27;;;;;;;9.20;3.08;;;15.00;99.90;;;;;;5114801;28;20104;-76
2022/04/28 12:22:00;;;;;;;7.47;2.80;;;14.90;99.90;;;;;;5115145;28;20089;-75
2022/04/28 12:24:32;;;;;;;8.80;3.30;;;14.90;99.90;;;;;;5116021;28;20055;-76
2022/04/28 12:27:05;;;;;;;7.28;3.03;;;15.20;99.90;;;;;;5113980;28;20457;-80
2022/04/28 12:29:31;;;;;;;6.80;2.97;;;15.20;99.90;;;;;;5114909;28;20040;-78
2022/04/28 12:31:57;;;;;;;9.57;3.08;;;15.30;99.90;;;;;;5114785;28;20048;-78
2022/04/28 12:34:24;;;;;;;6.53;2.78;;;15.50;99.90;;;;;;5097183;28;20494;-80
2022/04/28 12:36:57;;;;;;;;;;;15.50;99.90;;;;;;5114426;28;20074;-80
2022/04/28 12:39:24;;;;;;;9.52;3.30;;;15.30;99.90;;;;;;5114907;28;20290;-81
2022/04/28 12:41:51;;;;;;;12.90;3.15;;;15.20;99.90;;;;;;5114697;28;20067;-78
2022/04/28 12:44:17;;;;;;;9.48;3.40;;;15.10;99.90;;;;;;5114598;28;20050;-79
2022/04/28 12:46:44;;;;;;;7.90;3.20;;;15.40;99.90;;;;;;5113986;28;20552;-79
2022/04/28 12:49:12;;;;;;;6.95;2.85;;;15.60;99.90;;;;;;5113972;28;20087;-79
2022/04/28 12:51:42;;;;;;;10.52;3.35;;;16.00;99.90;;;;;;5114084;28;20052;-80
2022/04/28 12:54:23;;;;;;;13.30;3.35;;;15.70;99.90;;;;;;5114497;28;20048;-80
2022/04/28 12:57:00;;;;;;;9.88;3.20;;;15.40;99.90;;;;;;5113287;28;20467;-79
2022/04/28 12:59:30;;;;;;;;;;;15.20;99.90;;;;;;5115390;28;20134;-80
2022/04/28 13:01:56;;;;;;;10.63;3.50;;;15.00;99.90;;;;;;5117870;28;19919;-79
2022/04/28 13:04:23;;;;;;;12.90;3.55;;;15.00;99.90;;;;;;5117583;28;20036;-80
2022/04/28 13:06:50;;;;;;;6.95;3.15;;;15.10;99.90;;;;;;5117846;28;20042;-80
2022/04/28 13:09:17;;;;;;;10.13;3.25;;;15.20;99.90;;;;;;5116959;28;20044;-80
2022/04/28 13:11:44;;;;;;;;;;;15.40;99.90;;;;;;5117791;28;20487;-76
2022/04/28 13:14:12;;;;;;;10.48;3.30;;;15.50;99.90;;;;;;5117420;28;19920;-76
2022/04/28 13:16:39;;;;;;;8.27;3.10;;;15.50;99.90;;;;;;5117251;28;20047;-76
2022/04/28 13:19:05;;;;;;;;;;;15.30;99.90;;;;;;5118023;28;20391;-74
2022/04/28 13:21:32;;;;;;;11.85;3.60;;;15.40;99.90;;;;;;5117101;28;20014;-79
2022/04/28 13:23:58;;;;;;;12.55;3.40;;;15.10;99.90;;;;;;5116121;28;20077;-78
2022/04/28 13:26:26;;;;;;;10.30;3.60;;;15.00;99.90;;;;;;5117323;28;20469;-78
2022/04/28 13:28:52;;;;;;;9.57;3.20;;;15.10;99.90;;;;;;5117056;28;20058;-78
2022/04/28 13:31:19;;;;;;;6.15;3.08;;;15.40;99.90;;;;;;5116976;28;20039;-80